createdAt,value
2022-09-13T00:01:39.459Z,2.42
2022-09-13T00:04:08.707Z,2.37
2022-09-13T00:06:36.163Z,2.40
2022-09-13T00:09:03.559Z,2.55
2022-09-13T00:11:31.626Z,2.80
2022-09-13T00:13:59.519Z,2.62
2022-09-13T00:16:28.515Z,2.70
2022-09-13T00:18:56.518Z,2.85
2022-09-13T00:21:25.136Z,2.62
2022-09-13T00:23:53.672Z,2.50
2022-09-13T00:26:28.287Z,2.72
2022-09-13T00:28:57.819Z,2.70
2022-09-13T00:31:27.632Z,2.60
2022-09-13T00:33:55.787Z,2.92
2022-09-13T00:36:23.116Z,2.58
2022-09-13T00:38:51.703Z,2.50
2022-09-13T00:41:20.901Z,2.67
2022-09-13T00:43:57.236Z,2.83
2022-09-13T00:46:34.519Z,2.67
2022-09-13T00:49:19.690Z,2.40
2022-09-13T00:51:55.470Z,2.45
2022-09-13T00:54:24.479Z,2.90
2022-09-13T00:56:55.317Z,2.62
2022-09-13T00:59:26.647Z,2.90
2022-09-13T01:01:56.335Z,2.67
2022-09-13T01:04:27.851Z,2.80
2022-09-13T01:06:59.141Z,2.72
2022-09-13T01:09:26.902Z,2.90
2022-09-13T01:12:15.288Z,2.62
2022-09-13T01:14:43.769Z,2.58
2022-09-13T01:17:11.099Z,3.00
2022-09-13T01:19:38.573Z,2.97
2022-09-13T01:22:24.237Z,3.03
2022-09-13T01:25:00.387Z,2.80
2022-09-13T01:27:40.112Z,2.90
2022-09-13T01:30:18.059Z,2.72
2022-09-13T01:32:52.964Z,2.83
2022-09-13T01:35:27.907Z,3.30
2022-09-13T01:38:26.734Z,2.80
2022-09-13T01:41:13.192Z,2.85
2022-09-13T01:43:48.184Z,3.12
2022-09-13T01:46:23.874Z,3.22
2022-09-13T01:48:57.758Z,2.90
2022-09-13T01:51:28.597Z,2.70
2022-09-13T01:54:18.073Z,2.92
2022-09-13T01:56:54.431Z,2.75
2022-09-13T01:59:51.843Z,2.78
2022-09-13T02:02:28.651Z,2.70
2022-09-13T02:05:01.314Z,3.05
2022-09-13T02:07:34.085Z,2.80
2022-09-13T02:10:07.633Z,2.70
2022-09-13T02:12:36.615Z,2.90
2022-09-13T02:15:12.676Z,2.80
2022-09-13T02:17:44.904Z,3.00
2022-09-13T02:20:26.930Z,2.50
2022-09-13T02:22:57.219Z,3.03
2022-09-13T02:25:26.384Z,2.70
2022-09-13T02:27:58.882Z,3.00
2022-09-13T02:30:28.426Z,3.75
2022-09-13T02:33:02.883Z,3.08
2022-09-13T02:35:37.217Z,2.70
2022-09-13T02:38:17.868Z,2.60
2022-09-13T02:40:55.840Z,2.75
2022-09-13T02:43:28.590Z,2.50
2022-09-13T02:46:12.609Z,2.80
2022-09-13T02:49:01.158Z,2.83
2022-09-13T02:51:33.597Z,3.17
2022-09-13T02:54:19.549Z,3.00
2022-09-13T02:56:55.762Z,2.60
2022-09-13T02:59:24.138Z,3.22
2022-09-13T03:02:11.152Z,3.17
2022-09-13T03:04:38.492Z,3.15
2022-09-13T03:07:13.577Z,2.80
2022-09-13T03:12:38.540Z,2.87
2022-09-13T03:15:20.753Z,3.15
2022-09-13T03:18:03.653Z,3.28
2022-09-13T03:20:51.186Z,3.22
2022-09-13T03:23:27.594Z,3.35
2022-09-13T03:26:19.692Z,3.15
2022-09-13T03:29:02.427Z,3.50
2022-09-13T03:31:50.445Z,3.10
2022-09-13T03:34:42.845Z,2.90
2022-09-13T03:37:34.063Z,2.90
2022-09-13T03:40:15.783Z,2.80
2022-09-13T03:42:48.524Z,3.08
2022-09-13T03:45:19.048Z,3.20
2022-09-13T03:47:48.626Z,3.47
2022-09-13T03:50:19.773Z,3.35
2022-09-13T03:52:49.086Z,3.53
2022-09-13T03:55:19.601Z,3.60
2022-09-13T03:57:47.252Z,3.50
2022-09-13T04:00:15.319Z,3.83
2022-09-13T04:02:42.883Z,3.60
2022-09-13T04:05:10.297Z,3.72
2022-09-13T04:07:37.620Z,3.42
2022-09-13T04:10:06.136Z,3.30
2022-09-13T04:12:33.455Z,3.58
2022-09-13T04:15:00.836Z,3.60
2022-09-13T04:17:28.412Z,3.62
2022-09-13T04:19:55.768Z,3.45
2022-09-13T04:22:23.095Z,3.50
2022-09-13T04:24:52.887Z,3.55
2022-09-13T04:27:20.276Z,3.28
2022-09-13T04:29:47.582Z,3.50
2022-09-13T04:32:15.280Z,3.45
2022-09-13T04:34:42.611Z,4.07
2022-09-13T04:37:09.928Z,3.78
2022-09-13T04:39:37.523Z,4.22
2022-09-13T04:42:05.322Z,3.87
2022-09-13T04:44:33.454Z,3.08
2022-09-13T04:47:01.073Z,3.70
2022-09-13T04:49:28.482Z,4.47
2022-09-13T04:51:55.814Z,4.75
2022-09-13T04:54:23.429Z,4.62
2022-09-13T04:56:50.728Z,4.75
2022-09-13T04:59:18.034Z,5.00
2022-09-13T05:01:45.727Z,4.95
2022-09-13T05:04:13.165Z,4.87
2022-09-13T05:06:40.743Z,4.82
2022-09-13T05:09:13.548Z,4.80
2022-09-13T05:11:41.347Z,4.47
2022-09-13T05:14:12.173Z,4.05
2022-09-13T05:16:39.711Z,3.80
2022-09-13T05:19:07.110Z,4.18
2022-09-13T05:21:34.690Z,4.25
2022-09-13T05:24:02.204Z,4.40
2022-09-13T05:26:33.847Z,4.32
2022-09-13T05:29:01.594Z,4.25
2022-09-13T05:31:31.814Z,4.07
2022-09-13T05:34:21.305Z,4.07
2022-09-13T05:36:54.194Z,4.10
2022-09-13T05:39:36.527Z,4.10
2022-09-13T05:42:07.281Z,4.00
2022-09-13T05:44:34.595Z,3.55
2022-09-13T05:47:01.901Z,3.42
2022-09-13T05:49:29.473Z,3.28
2022-09-13T05:51:56.774Z,2.92
2022-09-13T05:54:24.084Z,3.00
2022-09-13T05:56:52.806Z,4.10
2022-09-13T05:59:20.105Z,3.15
2022-09-13T06:01:48.418Z,3.17
2022-09-13T06:04:16.052Z,2.78
2022-09-13T06:06:43.399Z,2.92
2022-09-13T06:09:11.653Z,2.72
2022-09-13T06:11:39.302Z,3.47
2022-09-13T06:14:06.662Z,2.78
2022-09-13T06:16:34.123Z,3.08
2022-09-13T06:19:02.055Z,3.28
2022-09-13T06:21:29.637Z,3.40
2022-09-13T06:23:57.052Z,3.00
2022-09-13T06:26:26.523Z,3.62
2022-09-13T06:28:56.340Z,3.20
2022-09-13T06:31:25.902Z,3.15
2022-09-13T06:33:59.181Z,2.97
2022-09-13T06:36:26.699Z,2.65
2022-09-13T06:38:54.402Z,2.85
2022-09-13T06:41:23.629Z,2.70
2022-09-13T06:44:01.734Z,2.83
2022-09-13T06:46:34.065Z,2.55
2022-09-13T06:49:03.933Z,3.03
2022-09-13T06:51:32.660Z,2.50
2022-09-13T06:54:00.344Z,2.65
2022-09-13T06:56:29.859Z,2.50
2022-09-13T06:58:59.791Z,2.50
2022-09-13T07:01:32.078Z,2.15
2022-09-13T07:04:03.526Z,2.50
2022-09-13T07:06:36.034Z,2.20
2022-09-13T07:09:05.883Z,2.40
2022-09-13T07:11:35.285Z,2.08
2022-09-13T07:14:03.375Z,1.98
2022-09-13T07:16:32.574Z,2.10
2022-09-13T07:19:01.587Z,2.00
2022-09-13T07:21:29.265Z,2.30
2022-09-13T07:23:57.418Z,2.30
2022-09-13T07:26:27.511Z,2.15
2022-09-13T07:28:56.935Z,2.28
2022-09-13T07:31:26.993Z,2.20
2022-09-13T07:34:02.976Z,1.98
2022-09-13T07:36:31.647Z,2.30
2022-09-13T07:38:59.378Z,2.05
2022-09-13T07:41:28.313Z,2.17
2022-09-13T07:43:56.815Z,2.15
2022-09-13T07:46:26.236Z,2.30
2022-09-13T07:48:55.971Z,2.30
2022-09-13T07:51:25.852Z,2.45
2022-09-13T07:53:57.650Z,2.60
2022-09-13T07:56:27.906Z,2.65
2022-09-13T07:58:55.780Z,2.50
2022-09-13T08:01:25.087Z,2.92
2022-09-13T08:03:57.225Z,2.62
2022-09-13T08:06:26.219Z,2.80
2022-09-13T08:08:54.156Z,2.97
2022-09-13T08:11:24.200Z,2.87
2022-09-13T08:13:52.311Z,2.83
2022-09-13T08:16:21.577Z,2.90
2022-09-13T08:18:51.090Z,3.42
2022-09-13T08:21:18.913Z,3.00
2022-09-13T08:23:46.999Z,3.00
2022-09-13T08:26:14.462Z,3.05
2022-09-13T08:28:42.938Z,3.20
2022-09-13T08:31:13.999Z,2.90
2022-09-13T08:33:46.479Z,2.78
2022-09-13T08:36:15.879Z,2.85
2022-09-13T08:38:48.300Z,3.17
2022-09-13T08:41:37.841Z,2.97
2022-09-13T08:44:28.070Z,2.90
2022-09-13T08:46:59.393Z,3.10
2022-09-13T08:49:32.395Z,2.92
2022-09-13T08:52:05.692Z,2.80
2022-09-13T08:54:35.285Z,2.60
2022-09-13T08:57:18.152Z,2.85
2022-09-13T09:00:20.845Z,2.55
2022-09-13T09:02:55.094Z,2.70
2022-09-13T09:05:24.571Z,3.03
2022-09-13T09:08:12.326Z,2.75
2022-09-13T09:10:47.017Z,2.85
2022-09-13T09:13:24.628Z,2.60
2022-09-13T09:16:02.158Z,3.00
2022-09-13T09:18:33.660Z,2.97
2022-09-13T09:21:02.066Z,2.92
2022-09-13T09:23:39.412Z,2.80
2022-09-13T09:26:20.113Z,2.85
2022-09-13T09:28:58.189Z,2.37
2022-09-13T09:31:37.593Z,2.17
2022-09-13T09:34:14.566Z,2.10
2022-09-13T09:36:51.055Z,2.37
2022-09-13T09:39:18.647Z,2.17
2022-09-13T09:41:46.354Z,2.70
2022-09-13T09:44:19.197Z,2.85
2022-09-13T09:46:51.020Z,2.53
2022-09-13T09:49:53.674Z,2.45
2022-09-13T09:52:29.911Z,2.40
2022-09-13T09:55:02.864Z,2.58
2022-09-13T09:57:49.804Z,2.70
2022-09-13T10:00:17.569Z,2.62
2022-09-13T10:02:45.917Z,2.55
2022-09-13T10:05:19.755Z,2.47
2022-09-13T10:07:55.816Z,2.03
2022-09-13T10:10:26.503Z,2.33
2022-09-13T10:12:59.754Z,1.95
2022-09-13T10:15:32.748Z,2.50
2022-09-13T10:18:16.784Z,2.08
2022-09-13T10:21:02.947Z,1.92
2022-09-13T10:23:34.076Z,2.10
2022-09-13T10:26:02.439Z,2.20
2022-09-13T10:28:31.409Z,2.55
2022-09-13T10:31:02.030Z,2.08
2022-09-13T10:33:32.568Z,2.35
2022-09-13T10:36:07.531Z,2.50
2022-09-13T10:38:41.794Z,2.42
2022-09-13T10:41:22.007Z,2.15
2022-09-13T10:43:49.782Z,2.00
2022-09-13T10:46:22.749Z,2.50
2022-09-13T10:48:57.178Z,2.20
2022-09-13T10:51:27.373Z,2.03
2022-09-13T10:54:20.123Z,2.33
2022-09-13T10:56:48.473Z,2.30
2022-09-13T10:59:30.808Z,2.47
2022-09-13T11:02:07.130Z,2.20
2022-09-13T11:04:40.111Z,2.50
2022-09-13T11:07:20.815Z,2.58
2022-09-13T11:10:14.644Z,2.15
2022-09-13T11:13:00.852Z,1.70
2022-09-13T11:15:36.944Z,1.58
2022-09-13T11:18:29.793Z,1.67
2022-09-13T11:21:15.535Z,1.70
2022-09-13T11:24:10.773Z,2.00
2022-09-13T11:29:54.145Z,1.60
2022-09-13T11:32:43.503Z,1.50
2022-09-13T11:35:48.810Z,1.60
2022-09-13T11:38:43.140Z,1.92
2022-09-13T11:41:38.541Z,1.92
2022-09-13T11:44:27.600Z,1.73
2022-09-13T11:47:16.799Z,1.98
2022-09-13T11:50:04.175Z,1.65
2022-09-13T11:53:04.635Z,1.60
2022-09-13T11:55:48.270Z,2.28
2022-09-13T11:58:21.895Z,1.75
2022-09-13T12:00:53.507Z,1.50
2022-09-13T12:03:58.502Z,1.70
2022-09-13T12:06:30.378Z,1.55
2022-09-13T12:09:03.365Z,1.80
2022-09-13T12:11:33.985Z,1.80
2022-09-13T12:14:04.637Z,1.65
2022-09-13T12:16:36.509Z,1.55
2022-09-13T12:19:24.035Z,1.55
2022-09-13T12:22:00.126Z,1.60
2022-09-13T12:24:50.762Z,1.60
2022-09-13T12:27:52.192Z,1.70
2022-09-13T12:30:21.846Z,1.70
2022-09-13T12:32:49.911Z,1.73
2022-09-13T12:35:27.058Z,1.92
2022-09-13T12:38:30.743Z,1.90
2022-09-13T12:41:23.474Z,1.73
2022-09-13T12:44:18.572Z,1.65
2022-09-13T12:46:55.351Z,1.60
2022-09-13T12:49:46.327Z,1.58
2022-09-13T12:52:21.319Z,1.80
2022-09-13T12:55:05.027Z,1.60
2022-09-13T12:57:46.633Z,1.67
2022-09-13T13:00:32.383Z,1.90
2022-09-13T13:03:12.064Z,1.70
2022-09-13T13:05:43.492Z,1.70
2022-09-13T13:08:19.943Z,1.60
2022-09-13T13:11:04.672Z,2.25
2022-09-13T13:13:40.450Z,1.80
2022-09-13T13:16:27.972Z,1.70
2022-09-13T13:18:57.466Z,1.70
2022-09-13T13:21:39.883Z,1.50
2022-09-13T13:24:16.301Z,1.50
2022-09-13T13:26:47.930Z,1.58
2022-09-13T13:29:15.802Z,1.60
2022-09-13T13:32:07.724Z,1.75
2022-09-13T13:34:41.431Z,1.48
2022-09-13T13:37:08.783Z,1.70
2022-09-13T13:39:39.816Z,1.60
2022-09-13T13:42:16.168Z,1.75
2022-09-13T13:44:43.720Z,1.50
2022-09-13T13:47:14.376Z,1.67
2022-09-13T13:49:41.577Z,1.70
2022-09-13T13:52:09.135Z,1.70
2022-09-13T13:54:42.535Z,1.87
2022-09-13T13:57:33.751Z,1.35
2022-09-13T14:00:13.381Z,1.75
2022-09-13T14:02:49.281Z,1.70
2022-09-13T14:05:54.725Z,1.67
2022-09-13T14:11:11.308Z,2.00
2022-09-13T14:14:33.034Z,1.50
2022-09-13T14:17:18.562Z,1.50
2022-09-13T14:19:50.559Z,2.08
2022-09-13T14:22:21.042Z,1.67
2022-09-13T14:24:50.022Z,1.62
2022-09-13T14:27:21.954Z,1.90
2022-09-13T14:29:55.334Z,1.45
2022-09-13T14:32:25.533Z,1.62
2022-09-13T14:35:01.997Z,1.80
2022-09-13T14:37:35.434Z,1.50
2022-09-13T14:40:17.125Z,1.85
2022-09-13T14:42:47.411Z,1.50
2022-09-13T14:45:20.481Z,1.45
2022-09-13T14:48:00.829Z,1.60
2022-09-13T14:50:37.708Z,1.50
2022-09-13T14:53:07.900Z,1.75
2022-09-13T14:55:42.546Z,1.70
2022-09-13T14:58:35.087Z,1.70
2022-09-13T15:01:05.933Z,1.70
2022-09-13T15:03:33.806Z,1.67
2022-09-13T15:06:02.883Z,1.70
2022-09-13T15:08:33.237Z,1.85
2022-09-13T15:11:02.812Z,4.07
2022-09-13T15:13:30.332Z,1.92
2022-09-13T15:15:57.895Z,3.12
2022-09-13T15:18:36.240Z,2.40
2022-09-13T15:21:06.358Z,2.33
2022-09-13T15:23:43.151Z,1.52
2022-09-13T15:26:32.164Z,1.87
2022-09-13T15:29:05.606Z,1.42
2022-09-13T15:31:34.970Z,1.60
2022-09-13T15:34:18.781Z,1.73
2022-09-13T15:36:47.423Z,1.50
2022-09-13T15:39:20.114Z,1.60
2022-09-13T15:41:57.730Z,1.90
2022-09-13T15:44:25.655Z,1.98
2022-09-13T15:46:59.895Z,1.60
2022-09-13T15:49:28.247Z,1.80
2022-09-13T15:52:01.570Z,1.80
2022-09-13T15:54:49.394Z,2.00
2022-09-13T15:57:24.955Z,2.08
2022-09-13T15:59:54.227Z,1.85
2022-09-13T16:02:25.748Z,1.87
2022-09-13T16:04:53.892Z,2.12
2022-09-13T16:07:22.040Z,2.12
2022-09-13T16:09:49.774Z,2.22
2022-09-13T16:12:18.974Z,2.25
2022-09-13T16:14:47.641Z,2.20
2022-09-13T16:17:22.948Z,2.33
2022-09-13T16:19:50.779Z,2.00
2022-09-13T16:22:18.131Z,2.15
2022-09-13T16:24:45.482Z,2.03
2022-09-13T16:27:14.653Z,2.20
2022-09-13T16:29:42.382Z,2.17
2022-09-13T16:32:09.865Z,1.60
2022-09-13T16:34:37.535Z,1.92
2022-09-13T16:37:05.197Z,2.00
2022-09-13T16:39:32.588Z,2.12
2022-09-13T16:42:00.221Z,2.10
2022-09-13T16:44:27.523Z,2.50
2022-09-13T16:46:54.897Z,2.53
2022-09-13T16:49:22.528Z,2.22
2022-09-13T16:51:50.064Z,2.17
2022-09-13T16:54:17.512Z,2.30
2022-09-13T16:56:45.171Z,2.17
2022-09-13T16:59:12.536Z,3.17
2022-09-13T17:01:39.963Z,2.20
2022-09-13T17:04:08.173Z,2.22
2022-09-13T17:06:35.771Z,2.42
2022-09-13T17:09:05.524Z,2.42
2022-09-13T17:11:36.841Z,2.70
2022-09-13T17:14:06.854Z,2.40
2022-09-13T17:16:40.720Z,2.30
2022-09-13T17:19:11.860Z,2.37
2022-09-13T17:21:40.058Z,2.37
2022-09-13T17:24:13.145Z,2.30
2022-09-13T17:26:42.445Z,2.45
2022-09-13T17:29:11.447Z,1.92
2022-09-13T17:31:38.863Z,2.00
2022-09-13T17:34:06.609Z,2.10
2022-09-13T17:36:33.961Z,2.10
2022-09-13T17:39:01.311Z,2.40
2022-09-13T17:41:28.877Z,2.17
2022-09-13T17:43:56.189Z,2.28
2022-09-13T17:46:25.891Z,2.22
2022-09-13T17:48:54.410Z,2.30
2022-09-13T17:51:27.735Z,2.40
2022-09-13T17:53:58.699Z,2.12
2022-09-13T17:56:30.369Z,2.15
2022-09-13T17:59:10.244Z,2.30
2022-09-13T18:01:39.610Z,2.50
2022-09-13T18:04:08.631Z,2.47
2022-09-13T18:06:37.131Z,2.65
2022-09-13T18:09:04.844Z,2.35
2022-09-13T18:11:32.749Z,2.47
2022-09-13T18:14:00.282Z,2.42
2022-09-13T18:16:29.702Z,2.25
2022-09-13T18:18:59.084Z,2.20
2022-09-13T18:21:27.805Z,2.40
2022-09-13T18:23:58.441Z,2.25
2022-09-13T18:26:28.707Z,2.40
2022-09-13T18:29:04.529Z,2.72
2022-09-13T18:31:34.686Z,2.45
2022-09-13T18:34:06.221Z,2.80
2022-09-13T18:36:35.234Z,2.58
2022-09-13T18:39:04.915Z,2.67
2022-09-13T18:41:37.261Z,2.70
2022-09-13T18:44:05.310Z,2.83
2022-09-13T18:46:34.727Z,2.60
2022-09-13T18:49:03.434Z,2.70
2022-09-13T18:51:33.760Z,3.00
2022-09-13T18:54:02.339Z,3.00
2022-09-13T18:56:30.001Z,2.90
2022-09-13T18:59:00.227Z,2.92
2022-09-13T19:01:30.546Z,2.87
2022-09-13T19:04:04.724Z,3.12
2022-09-13T19:06:38.183Z,2.80
2022-09-13T19:09:06.906Z,2.77
2022-09-13T19:11:47.400Z,2.62
2022-09-13T19:14:24.165Z,2.85
2022-09-13T19:16:53.739Z,2.75
2022-09-13T19:19:22.007Z,2.40
2022-09-13T19:21:50.037Z,2.90
2022-09-13T19:24:19.716Z,3.50
2022-09-13T19:26:51.009Z,3.00
2022-09-13T19:29:22.288Z,3.40
2022-09-13T19:31:52.612Z,3.33
2022-09-13T19:34:22.338Z,2.85
2022-09-13T19:36:53.857Z,3.20
2022-09-13T19:39:25.838Z,3.37
2022-09-13T19:41:57.008Z,3.58
2022-09-13T19:44:24.950Z,2.97
2022-09-13T19:47:15.036Z,3.20
2022-09-13T19:49:42.029Z,3.00
2022-09-13T19:52:09.994Z,3.37
2022-09-13T19:54:37.672Z,3.53
2022-09-13T19:57:07.969Z,3.58
2022-09-13T19:59:36.944Z,3.45
2022-09-13T20:02:05.422Z,3.65
2022-09-13T20:04:33.421Z,3.60
2022-09-13T20:07:01.098Z,3.45
2022-09-13T20:09:30.855Z,3.80
2022-09-13T20:12:00.765Z,3.80
2022-09-13T20:14:28.775Z,3.70
2022-09-13T20:16:57.449Z,3.50
2022-09-13T20:19:43.824Z,3.42
2022-09-13T20:22:13.128Z,3.72
2022-09-13T20:24:41.404Z,3.58
2022-09-13T20:27:12.626Z,3.58
2022-09-13T20:29:40.669Z,3.42
2022-09-13T20:32:09.722Z,3.40
2022-09-13T20:34:39.513Z,3.58
2022-09-13T20:37:07.404Z,3.22
2022-09-13T20:39:35.593Z,3.35
2022-09-13T20:42:03.241Z,3.17
2022-09-13T20:44:30.856Z,3.10
2022-09-13T20:46:59.024Z,3.65
2022-09-13T20:49:26.719Z,3.85
2022-09-13T20:51:54.427Z,3.80
2022-09-13T20:54:22.083Z,3.47
2022-09-13T20:56:49.440Z,3.40
2022-09-13T20:59:16.929Z,3.45
2022-09-13T21:01:44.590Z,3.50
2022-09-13T21:04:12.004Z,3.40
2022-09-13T21:07:00.995Z,3.50
2022-09-13T21:09:28.978Z,3.40
2022-09-13T21:11:56.288Z,3.35
2022-09-13T21:14:23.753Z,4.03
2022-09-13T21:16:51.402Z,3.50
2022-09-13T21:19:18.799Z,3.87
2022-09-13T21:21:46.115Z,3.28
2022-09-13T21:24:13.793Z,3.40
2022-09-13T21:26:42.386Z,3.58
2022-09-13T21:29:11.321Z,3.72
2022-09-13T21:31:39.591Z,3.53
2022-09-13T21:34:15.364Z,3.60
2022-09-13T21:36:43.985Z,3.30
2022-09-13T21:39:12.552Z,3.62
2022-09-13T21:41:40.353Z,3.50
2022-09-13T21:44:08.116Z,3.87
2022-09-13T21:46:36.559Z,3.42
2022-09-13T21:49:05.940Z,3.30
2022-09-13T21:51:48.329Z,3.25
2022-09-13T21:54:18.417Z,3.40
2022-09-13T21:56:51.813Z,3.35
2022-09-13T21:59:20.498Z,3.60
2022-09-13T22:01:51.250Z,3.30
2022-09-13T22:04:22.081Z,3.33
2022-09-13T22:06:53.838Z,3.65
2022-09-13T22:09:23.614Z,3.53
2022-09-13T22:11:50.936Z,3.45
2022-09-13T22:14:21.585Z,3.60
2022-09-13T22:16:52.890Z,3.62
2022-09-13T22:19:23.699Z,3.70
2022-09-13T22:21:55.445Z,3.50
2022-09-13T22:24:24.637Z,3.80
2022-09-13T22:26:54.319Z,4.00
2022-09-13T22:29:22.310Z,3.50
2022-09-13T22:31:50.788Z,3.40
2022-09-13T22:34:21.201Z,3.50
2022-09-13T22:36:48.847Z,3.50
2022-09-13T22:39:17.137Z,3.42
2022-09-13T22:41:45.102Z,3.10
2022-09-13T22:44:12.752Z,3.53
2022-09-13T22:46:42.300Z,3.00
2022-09-13T22:49:17.390Z,3.00
2022-09-13T22:51:45.361Z,3.33
2022-09-13T22:54:14.289Z,3.83
2022-09-13T22:56:42.000Z,3.05
2022-09-13T22:59:13.240Z,3.10
2022-09-13T23:01:41.494Z,3.30
2022-09-13T23:04:09.516Z,3.55
2022-09-13T23:06:37.059Z,3.10
2022-09-13T23:09:07.143Z,3.33
2022-09-13T23:11:36.911Z,3.25
2022-09-13T23:14:12.877Z,3.28
2022-09-13T23:16:43.720Z,3.03
2022-09-13T23:19:13.013Z,3.70
2022-09-13T23:21:41.562Z,3.28
2022-09-13T23:24:12.699Z,3.65
2022-09-13T23:26:40.110Z,3.30
2022-09-13T23:29:07.812Z,3.17
2022-09-13T23:31:38.851Z,3.30
2022-09-13T23:34:07.768Z,3.17
2022-09-13T23:36:37.744Z,3.45
2022-09-13T23:39:07.940Z,2.97
2022-09-13T23:41:35.930Z,2.87
2022-09-13T23:44:03.688Z,3.17
2022-09-13T23:46:31.265Z,3.42
2022-09-13T23:48:59.070Z,3.37
2022-09-13T23:51:26.976Z,3.62
2022-09-13T23:53:56.981Z,3.35
2022-09-13T23:56:25.877Z,3.65
2022-09-13T23:58:53.480Z,3.37
